createdAt,value
2023-02-19T00:54:33.407Z,82.16
2023-02-19T01:59:44.683Z,85.77
2023-02-19T02:09:41.218Z,85.90
2023-02-19T02:12:10.941Z,85.98
2023-02-19T02:14:50.780Z,86.04
2023-02-19T02:17:30.801Z,86.29
2023-02-19T02:20:35.463Z,86.27
2023-02-19T02:23:39.251Z,86.36
2023-02-19T02:26:59.501Z,86.59
2023-02-19T02:33:32.822Z,86.64
2023-02-19T02:39:55.685Z,86.55
2023-02-19T02:45:39.867Z,86.57
2023-02-19T02:49:06.080Z,86.51
2023-02-19T03:03:47.939Z,86.33
2023-02-19T03:06:32.029Z,86.26
2023-02-19T03:09:18.656Z,86.39
2023-02-19T03:12:12.025Z,86.67
2023-02-19T03:15:29.265Z,86.39
2023-02-19T03:40:34.609Z,86.52
2023-02-19T03:43:26.800Z,86.56
2023-02-19T04:01:26.404Z,88.10
2023-02-19T04:04:31.356Z,88.49
2023-02-19T04:07:45.535Z,88.29
2023-02-19T04:13:26.035Z,88.03
2023-02-19T04:15:57.352Z,87.98
2023-02-19T04:25:49.983Z,87.51
2023-02-19T04:31:27.870Z,87.49
2023-02-19T04:34:02.568Z,87.67
2023-02-19T04:40:26.546Z,87.51
2023-02-19T04:43:13.806Z,87.41
2023-02-19T04:45:42.611Z,87.55
2023-02-19T04:54:40.072Z,87.21
2023-02-19T04:57:28.566Z,87.28
2023-02-19T05:00:53.478Z,87.34
2023-02-19T05:09:37.880Z,87.35
2023-02-19T05:21:26.970Z,87.32
2023-02-19T05:24:32.182Z,87.33
2023-02-19T05:27:31.647Z,87.34
2023-02-19T05:39:46.490Z,87.48
2023-02-19T05:42:52.597Z,87.56
2023-02-19T05:57:58.492Z,87.69
2023-02-19T06:00:51.650Z,88.04
2023-02-19T06:03:20.600Z,88.61
2023-02-19T06:05:57.516Z,89.03
2023-02-19T06:08:42.948Z,89.54
2023-02-19T06:11:40.027Z,89.98
2023-02-19T06:14:29.837Z,90.48
2023-02-19T06:23:41.443Z,91.10
2023-02-19T06:35:43.628Z,91.25
2023-02-19T06:38:29.296Z,91.20
2023-02-19T06:49:40.433Z,90.22
2023-02-19T07:07:13.789Z,88.72
2023-02-19T07:20:17.946Z,87.52
2023-02-19T07:23:20.404Z,87.68
2023-02-19T08:01:19.638Z,84.12
2023-02-19T08:03:47.067Z,83.98
2023-02-19T08:06:14.212Z,83.79
2023-02-19T08:08:41.003Z,83.63
2023-02-19T08:11:26.399Z,83.56
2023-02-19T08:13:53.575Z,83.29
2023-02-19T08:16:30.026Z,83.25
2023-02-19T08:18:59.932Z,83.46
2023-02-19T08:21:26.711Z,83.18
2023-02-19T08:23:53.172Z,83.12
2023-02-19T08:26:19.627Z,83.10
2023-02-19T08:28:46.283Z,83.02
2023-02-19T08:31:13.285Z,83.01
2023-02-19T08:33:40.407Z,83.05
2023-02-19T08:36:08.902Z,83.22
2023-02-19T08:38:36.305Z,82.98
2023-02-19T08:41:11.712Z,83.20
2023-02-19T08:43:38.894Z,83.11
2023-02-19T08:46:06.924Z,83.14
2023-02-19T08:48:33.813Z,83.28
2023-02-19T08:51:05.391Z,83.15
2023-02-19T08:53:32.592Z,83.10
2023-02-19T08:55:59.089Z,83.11
2023-02-19T08:58:26.235Z,83.34
2023-02-19T09:00:53.074Z,83.31
2023-02-19T09:03:19.480Z,83.28
2023-02-19T09:05:46.753Z,83.54
2023-02-19T09:08:13.154Z,84.01
2023-02-19T09:10:39.715Z,84.16
2023-02-19T09:13:06.224Z,84.54
2023-02-19T09:15:33.320Z,84.83
2023-02-19T09:18:00.047Z,84.73
2023-02-19T09:20:26.526Z,84.98
2023-02-19T09:22:57.326Z,85.07
2023-02-19T09:25:23.792Z,84.87
2023-02-19T09:27:50.243Z,84.71
2023-02-19T09:30:16.724Z,84.57
2023-02-19T09:32:43.125Z,84.53
2023-02-19T09:35:09.526Z,84.08
2023-02-19T09:37:36.094Z,83.75
2023-02-19T09:40:02.610Z,83.34
2023-02-19T09:42:31.253Z,83.06
2023-02-19T09:44:59.559Z,82.49
2023-02-19T09:47:31.600Z,82.28
2023-02-19T09:50:06.898Z,82.14
2023-02-19T09:52:52.232Z,82.30
2023-02-19T09:55:39.117Z,82.30
2023-02-19T09:58:35.411Z,82.18
2023-02-19T10:01:03.854Z,81.97
2023-02-19T10:03:33.578Z,81.95
2023-02-19T10:06:05.026Z,81.68
2023-02-19T10:08:33.678Z,80.75
2023-02-19T10:11:01.269Z,80.75
2023-02-19T10:13:34.313Z,80.78
2023-02-19T10:16:02.350Z,80.45
2023-02-19T10:18:39.506Z,80.55
2023-02-19T10:21:06.207Z,80.38
2023-02-19T10:23:32.824Z,79.93
2023-02-19T10:25:59.846Z,79.34
2023-02-19T10:28:33.444Z,78.88
2023-02-19T10:31:01.835Z,78.67
2023-02-19T10:33:28.768Z,78.67
2023-02-19T10:36:07.812Z,78.85
2023-02-19T10:38:36.939Z,78.44
2023-02-19T10:41:20.744Z,77.93
2023-02-19T10:43:54.562Z,77.64
2023-02-19T10:46:33.264Z,76.91
2023-02-19T10:49:02.181Z,76.22
2023-02-19T10:51:34.571Z,76.31
2023-02-19T10:54:16.600Z,76.47
2023-02-19T10:56:43.114Z,76.30
2023-02-19T10:59:24.352Z,76.29
2023-02-19T11:01:55.160Z,75.92
2023-02-19T11:04:21.979Z,75.27
2023-02-19T11:06:48.441Z,74.11
2023-02-19T11:09:28.289Z,73.94
2023-02-19T11:11:56.434Z,73.86
2023-02-19T11:14:24.377Z,73.96
2023-02-19T11:16:56.390Z,73.52
2023-02-19T11:19:26.402Z,73.59
2023-02-19T11:21:53.560Z,72.98
2023-02-19T11:24:33.927Z,73.05
2023-02-19T11:27:02.976Z,73.44
2023-02-19T11:29:34.574Z,73.31
2023-02-19T11:32:25.372Z,73.40
2023-02-19T11:34:52.502Z,72.83
2023-02-19T11:37:21.042Z,72.62
2023-02-19T11:39:48.679Z,72.45
2023-02-19T11:42:29.276Z,72.50
2023-02-19T11:44:58.910Z,72.19
2023-02-19T11:47:43.346Z,72.02
2023-02-19T11:50:42.639Z,71.27
2023-02-19T11:53:25.019Z,70.68
2023-02-19T11:56:21.612Z,70.43
2023-02-19T11:58:54.088Z,70.22
2023-02-19T12:01:42.923Z,69.88
2023-02-19T12:04:31.911Z,69.08
2023-02-19T12:07:10.407Z,68.13
2023-02-19T12:09:43.548Z,67.97
2023-02-19T12:12:30.880Z,67.66
2023-02-19T12:15:21.957Z,67.77
2023-02-19T12:18:07.146Z,67.64
2023-02-19T12:20:44.104Z,67.68
2023-02-19T12:23:44.526Z,68.14
2023-02-19T12:26:24.955Z,68.49
2023-02-19T12:29:21.323Z,68.22
2023-02-19T12:32:23.411Z,67.65
2023-02-19T12:35:04.587Z,67.22
2023-02-19T12:38:02.072Z,67.38
2023-02-19T12:40:53.762Z,67.31
2023-02-19T12:43:22.019Z,67.68
2023-02-19T12:46:15.648Z,68.13
2023-02-19T12:48:48.578Z,68.02
2023-02-19T12:51:25.794Z,68.27
2023-02-19T12:54:06.192Z,68.62
2023-02-19T12:56:48.224Z,68.64
2023-02-19T12:59:22.639Z,68.49
2023-02-19T13:02:02.897Z,68.17
2023-02-19T13:05:01.973Z,68.00
2023-02-19T13:07:32.465Z,67.81
2023-02-19T13:10:26.826Z,68.21
2023-02-19T13:12:54.904Z,68.18
2023-02-19T13:15:28.547Z,68.53
2023-02-19T13:17:56.039Z,68.99
2023-02-19T13:20:32.707Z,69.29
2023-02-19T13:23:26.979Z,68.46
2023-02-19T13:26:19.654Z,66.72
2023-02-19T13:29:12.329Z,65.57
2023-02-19T13:32:09.435Z,66.07
2023-02-19T13:34:49.884Z,65.94
2023-02-19T13:37:16.923Z,65.84
2023-02-19T13:39:49.799Z,65.77
2023-02-19T13:42:33.493Z,65.35
2023-02-19T13:45:01.221Z,65.44
2023-02-19T13:47:59.758Z,65.56
2023-02-19T13:50:28.825Z,66.01
2023-02-19T13:52:56.231Z,66.24
2023-02-19T13:55:42.266Z,65.92
2023-02-19T13:58:33.409Z,65.95
2023-02-19T14:01:01.527Z,66.28
2023-02-19T14:03:39.975Z,66.46
2023-02-19T14:06:08.677Z,66.14
2023-02-19T14:08:56.854Z,66.87
2023-02-19T14:11:43.933Z,66.49
2023-02-19T14:14:41.382Z,66.18
2023-02-19T14:17:27.558Z,66.41
2023-02-19T14:19:59.419Z,66.23
2023-02-19T14:22:47.619Z,66.50
2023-02-19T14:25:49.393Z,67.03
2023-02-19T14:28:40.466Z,67.11
2023-02-19T14:31:19.825Z,67.21
2023-02-19T14:33:52.517Z,67.30
2023-02-19T14:36:26.533Z,67.29
2023-02-19T14:39:13.025Z,67.07
2023-02-19T14:41:42.715Z,66.94
2023-02-19T14:44:21.467Z,67.17
2023-02-19T14:46:52.843Z,67.10
2023-02-19T14:49:25.571Z,67.02
2023-02-19T14:51:55.123Z,67.34
2023-02-19T14:54:33.607Z,67.52
2023-02-19T14:57:00.826Z,67.55
2023-02-19T14:59:29.383Z,67.67
2023-02-19T15:02:04.377Z,67.70
2023-02-19T15:04:36.454Z,67.87
2023-02-19T15:07:06.629Z,68.28
2023-02-19T15:09:37.125Z,68.52
2023-02-19T15:12:03.973Z,68.59
2023-02-19T15:14:32.201Z,68.63
2023-02-19T15:17:04.108Z,68.64
2023-02-19T15:19:33.522Z,68.89
2023-02-19T15:22:00.110Z,69.02
2023-02-19T15:24:28.192Z,69.00
2023-02-19T15:26:55.028Z,69.09
2023-02-19T15:29:26.513Z,69.15
2023-02-19T15:31:59.114Z,69.19
2023-02-19T15:34:28.461Z,69.31
2023-02-19T15:36:58.528Z,69.28
2023-02-19T15:39:27.449Z,69.54
2023-02-19T15:42:00.202Z,69.55
2023-02-19T15:44:51.599Z,69.59
2023-02-19T15:47:23.593Z,70.05
2023-02-19T15:49:57.098Z,70.56
2023-02-19T15:52:36.306Z,71.69
2023-02-19T15:55:12.116Z,72.31
2023-02-19T15:57:43.304Z,72.84
2023-02-19T16:00:21.176Z,73.51
2023-02-19T16:02:48.654Z,74.44
2023-02-19T16:05:23.422Z,75.13
2023-02-19T16:08:25.670Z,76.45
2023-02-19T16:10:57.949Z,77.15
2023-02-19T16:13:30.157Z,77.47
2023-02-19T16:16:08.736Z,78.54
2023-02-19T16:18:35.394Z,79.13
2023-02-19T16:21:07.366Z,79.67
2023-02-19T16:23:33.934Z,79.84
2023-02-19T16:26:01.903Z,80.46
2023-02-19T16:28:33.089Z,81.24
2023-02-19T16:31:02.309Z,81.93
2023-02-19T16:33:37.984Z,82.58
2023-02-19T16:36:26.461Z,83.26
2023-02-19T16:39:08.173Z,83.59
2023-02-19T16:41:40.384Z,83.83
2023-02-19T16:44:25.055Z,84.66
2023-02-19T16:46:57.731Z,84.81
2023-02-19T16:49:24.421Z,85.12
2023-02-19T16:51:51.080Z,85.27
2023-02-19T16:54:18.742Z,85.52
2023-02-19T16:56:45.155Z,85.75
2023-02-19T16:59:11.663Z,85.88
2023-02-19T17:01:38.299Z,86.11
2023-02-19T17:04:07.130Z,86.34
2023-02-19T17:06:34.732Z,86.60
2023-02-19T17:09:01.121Z,86.62
2023-02-19T17:11:27.518Z,86.61
2023-02-19T17:13:53.907Z,86.70
2023-02-19T17:16:27.454Z,86.76
2023-02-19T17:18:54.922Z,86.81
2023-02-19T17:21:27.004Z,86.82
2023-02-19T17:23:54.050Z,86.91
2023-02-19T17:26:23.744Z,86.40
2023-02-19T17:28:50.338Z,86.67
2023-02-19T17:31:17.251Z,86.48
2023-02-19T17:33:43.999Z,86.34
2023-02-19T17:36:17.674Z,86.50
2023-02-19T17:38:44.216Z,86.01
2023-02-19T17:41:11.093Z,85.51
2023-02-19T17:43:37.788Z,85.12
2023-02-19T17:46:04.668Z,84.39
2023-02-19T17:48:31.379Z,84.17
2023-02-19T17:51:01.034Z,83.63
2023-02-19T17:53:27.861Z,83.47
2023-02-19T17:55:54.346Z,82.96
2023-02-19T17:58:20.972Z,82.46
2023-02-19T18:00:47.548Z,82.42
2023-02-19T18:03:14.239Z,82.14
2023-02-19T18:05:40.962Z,81.76
2023-02-19T18:08:07.676Z,81.68
2023-02-19T18:10:34.393Z,81.31
2023-02-19T18:13:00.950Z,81.50
2023-02-19T18:15:27.569Z,81.25
2023-02-19T18:17:54.768Z,81.56
2023-02-19T18:20:25.376Z,81.58
2023-02-19T18:22:52.051Z,81.72
2023-02-19T18:25:19.249Z,81.66
2023-02-19T18:27:46.898Z,81.81
2023-02-19T18:30:20.929Z,82.15
2023-02-19T18:32:48.548Z,81.83
2023-02-19T18:35:17.217Z,81.94
2023-02-19T18:37:43.871Z,81.90
2023-02-19T18:40:11.029Z,81.96
2023-02-19T18:42:37.622Z,81.89
2023-02-19T18:45:04.531Z,81.88
2023-02-19T18:47:31.182Z,81.67
2023-02-19T18:49:58.705Z,81.60
2023-02-19T18:52:26.585Z,81.38
2023-02-19T18:54:55.242Z,81.29
2023-02-19T18:57:23.713Z,81.11
2023-02-19T18:59:50.731Z,81.05
2023-02-19T19:02:17.727Z,80.88
2023-02-19T19:04:51.789Z,80.80
2023-02-19T19:07:18.988Z,80.90
2023-02-19T19:09:45.555Z,81.11
2023-02-19T19:12:12.524Z,81.01
2023-02-19T19:14:39.273Z,81.04
2023-02-19T19:17:05.823Z,81.09
2023-02-19T19:19:32.356Z,81.35
2023-02-19T19:21:58.915Z,81.25
2023-02-19T19:24:25.513Z,80.85
2023-02-19T19:26:52.939Z,81.17
2023-02-19T19:29:22.108Z,81.16
2023-02-19T19:31:49.433Z,80.97
2023-02-19T19:34:16.436Z,81.19
2023-02-19T19:36:43.372Z,81.28
2023-02-19T19:39:09.890Z,81.09
2023-02-19T19:41:36.408Z,80.77
2023-02-19T19:44:06.347Z,80.92
2023-02-19T19:46:33.368Z,81.20
2023-02-19T19:49:00.029Z,80.97
2023-02-19T19:51:34.191Z,80.94
2023-02-19T19:54:03.183Z,80.85
2023-02-19T19:56:30.215Z,80.63
2023-02-19T19:58:56.759Z,80.46
2023-02-19T20:01:23.687Z,80.32
2023-02-19T20:03:53.172Z,80.32
2023-02-19T20:06:29.433Z,80.27
2023-02-19T20:08:56.768Z,80.32
2023-02-19T20:11:23.556Z,80.30
2023-02-19T20:13:50.212Z,80.25
2023-02-19T20:16:16.771Z,80.36
2023-02-19T20:18:43.308Z,80.61
2023-02-19T20:21:11.169Z,80.61
2023-02-19T20:23:39.688Z,80.57
2023-02-19T20:26:06.815Z,80.62
2023-02-19T20:28:33.627Z,81.03
2023-02-19T20:31:00.469Z,81.02
2023-02-19T20:33:27.050Z,80.73
2023-02-19T20:35:53.669Z,80.83
2023-02-19T20:38:20.239Z,81.16
2023-02-19T20:40:46.877Z,81.15
2023-02-19T20:43:13.601Z,81.39
2023-02-19T20:45:41.046Z,81.34
2023-02-19T20:48:08.879Z,81.36
2023-02-19T20:50:35.489Z,81.61
2023-02-19T20:53:02.019Z,81.70
2023-02-19T20:55:28.729Z,81.86
2023-02-19T20:57:55.296Z,82.07
2023-02-19T21:00:22.058Z,81.94
2023-02-19T21:02:51.675Z,82.00
2023-02-19T21:05:20.002Z,82.01
2023-02-19T21:07:46.848Z,81.95
2023-02-19T21:10:13.730Z,82.08
2023-02-19T21:12:42.043Z,82.17
2023-02-19T21:15:09.160Z,82.38
2023-02-19T21:17:36.527Z,82.53
2023-02-19T21:20:06.640Z,82.56
2023-02-19T21:22:33.201Z,82.70
2023-02-19T21:25:00.273Z,82.74
2023-02-19T21:27:26.909Z,83.05
2023-02-19T21:29:53.531Z,82.94
2023-02-19T21:32:20.507Z,83.02
2023-02-19T21:34:47.357Z,82.96
2023-02-19T21:37:14.092Z,83.17
2023-02-19T21:39:42.933Z,83.13
2023-02-19T21:42:09.544Z,83.10
2023-02-19T21:44:36.442Z,83.24
2023-02-19T21:47:03.324Z,83.39
2023-02-19T21:49:30.319Z,83.37
2023-02-19T21:51:57.254Z,83.47
2023-02-19T21:54:25.346Z,83.66
2023-02-19T21:56:55.988Z,83.56
2023-02-19T21:59:22.907Z,83.74
2023-02-19T22:01:50.873Z,83.74
2023-02-19T22:04:21.448Z,83.81
2023-02-19T22:06:48.547Z,83.78
2023-02-19T22:09:15.518Z,83.72
2023-02-19T22:11:42.601Z,83.52
2023-02-19T22:14:15.366Z,83.70
2023-02-19T22:16:42.320Z,83.59
2023-02-19T22:19:09.981Z,83.55
2023-02-19T22:21:46.539Z,83.56
2023-02-19T22:24:17.820Z,83.35
2023-02-19T22:26:45.141Z,83.44
2023-02-19T22:29:16.346Z,83.33
2023-02-19T22:31:43.313Z,83.57
2023-02-19T22:34:10.431Z,83.51
2023-02-19T22:36:39.112Z,83.25
2023-02-19T22:39:07.974Z,83.46
2023-02-19T22:41:35.085Z,83.60
2023-02-19T22:44:18.045Z,83.62
2023-02-19T22:46:50.630Z,83.53
2023-02-19T22:49:17.794Z,83.46
2023-02-19T22:51:50.103Z,83.50
2023-02-19T22:54:17.358Z,83.57
2023-02-19T22:56:44.653Z,83.58
2023-02-19T22:59:21.218Z,83.48
2023-02-19T23:01:49.217Z,83.42
2023-02-19T23:04:16.869Z,83.42
2023-02-19T23:06:47.474Z,83.47
2023-02-19T23:09:20.796Z,83.21
2023-02-19T23:11:47.733Z,83.08
2023-02-19T23:14:18.566Z,82.79
2023-02-19T23:16:45.411Z,82.61
2023-02-19T23:19:15.185Z,82.52
2023-02-19T23:21:43.793Z,82.36
2023-02-19T23:24:11.626Z,82.36
2023-02-19T23:26:50.565Z,82.26
2023-02-19T23:29:21.482Z,82.19
2023-02-19T23:31:48.745Z,82.09
2023-02-19T23:34:16.939Z,82.13
2023-02-19T23:36:46.099Z,82.02
2023-02-19T23:39:13.700Z,82.06
2023-02-19T23:41:46.937Z,81.79
2023-02-19T23:44:13.793Z,81.87
2023-02-19T23:46:40.496Z,82.26
2023-02-19T23:49:07.822Z,82.21
2023-02-19T23:51:35.055Z,82.05
2023-02-19T23:54:01.943Z,82.27
2023-02-19T23:56:29.434Z,82.40
2023-02-19T23:58:56.679Z,82.47
